Time;durP1;ratioP1;P1;durP2;ratioP2;P2;SDS_P1;SDS_P2;PMS_P1;PMS_P2;Temp;Humidity;BMP_temperature;BMP_pressure;BME280_temperature;BME280_humidity;BME280_pressure;Samples;Min_cycle;Max_cycle;Signal;HPM_P1;HPM_P2
2022/05/19 00:01:32;;;;;;;7.55;4.40;;;21.00;33.30;;;;;;5033733;28;20383;-80
2022/05/19 00:03:57;;;;;;;7.80;5.30;;;20.90;34.50;;;;;;5037864;28;20406;-79
2022/05/19 00:06:25;;;;;;;7.40;4.80;;;20.80;34.30;;;;;;5040915;28;20437;-79
2022/05/19 00:08:50;;;;;;;6.33;4.23;;;20.80;34.20;;;;;;5038855;28;20771;-80
2022/05/19 00:11:23;;;;;;;7.63;4.77;;;20.70;34.80;;;;;;5038478;28;20398;-78
2022/05/19 00:13:48;;;;;;;5.43;4.60;;;20.70;34.80;;;;;;5039797;28;20395;-79
2022/05/19 00:16:14;;;;;;;6.03;4.40;;;20.70;34.90;;;;;;5037999;28;20894;-79
2022/05/19 00:18:40;;;;;;;4.78;4.28;;;20.70;34.80;;;;;;5038100;28;20399;-79
2022/05/19 00:21:06;;;;;;;7.07;4.60;;;20.70;35.00;;;;;;5039349;28;20411;-78
2022/05/19 00:23:31;;;;;;;7.00;4.20;;;20.70;35.40;;;;;;5043426;28;20445;-77
2022/05/19 00:25:57;;;;;;;15.37;4.73;;;20.60;35.30;;;;;;5044699;28;20497;-78
2022/05/19 00:28:22;;;;;;;5.25;4.40;;;20.60;35.10;;;;;;5042718;28;20403;-79
2022/05/19 00:30:48;;;;;;;7.07;4.90;;;20.60;35.50;;;;;;5038622;28;20403;-79
2022/05/19 00:33:14;;;;;;;5.40;4.40;;;20.50;35.70;;;;;;5038928;28;20478;-80
2022/05/19 00:35:40;;;;;;;8.18;4.70;;;20.60;35.20;;;;;;5038230;28;20434;-80
2022/05/19 00:38:07;;;;;;;6.20;4.60;;;20.60;35.50;;;;;;5039508;28;20435;-80
2022/05/19 00:40:33;;;;;;;8.77;4.60;;;20.50;35.80;;;;;;5039026;28;20394;-79
2022/05/19 00:42:58;;;;;;;7.15;4.50;;;20.40;36.30;;;;;;5038462;28;20425;-79
2022/05/19 00:45:26;;;;;;;6.22;4.60;;;20.40;36.30;;;;;;5033258;28;20769;-78
2022/05/19 00:47:55;;;;;;;10.57;4.55;;;20.40;35.90;;;;;;5039178;28;20415;-79
2022/05/19 00:50:43;;;;;;;8.05;4.60;;;20.40;35.50;;;;;;5041611;28;20411;-79
2022/05/19 00:53:15;;;;;;;10.43;5.30;;;20.50;35.90;;;;;;5045183;28;20399;-79
2022/05/19 00:55:45;;;;;;;6.97;4.47;;;20.50;35.90;;;;;;5047399;28;20407;-77
2022/05/19 00:58:26;;;;;;;7.18;4.03;;;20.60;34.80;;;;;;5051442;28;20391;-79
2022/05/19 01:00:53;;;;;;;6.63;4.60;;;20.60;34.60;;;;;;5049385;28;20395;-80
2022/05/19 01:03:20;;;;;;;6.47;4.60;;;20.50;34.80;;;;;;5047686;28;20429;-79
2022/05/19 01:05:56;;;;;;;5.55;4.35;;;20.50;34.70;;;;;;5046816;28;20395;-80
2022/05/19 01:08:29;;;;;;;6.10;4.25;;;20.50;34.40;;;;;;5039216;28;20908;-80
2022/05/19 01:10:57;;;;;;;7.82;4.40;;;20.50;34.60;;;;;;5039256;28;20423;-79
2022/05/19 01:13:25;;;;;;;7.55;4.60;;;20.60;33.70;;;;;;5044418;28;20416;-77
2022/05/19 01:15:52;;;;;;;11.55;4.55;;;20.70;33.20;;;;;;5049610;28;20411;-78
2022/05/19 01:18:19;;;;;;;5.82;4.25;;;20.70;33.30;;;;;;5051486;28;20407;-78
2022/05/19 01:20:47;;;;;;;6.97;4.35;;;20.60;33.40;;;;;;5048535;28;20435;-77
2022/05/19 01:23:24;;;;;;;7.78;4.50;;;20.60;33.40;;;;;;5049117;28;20398;-78
2022/05/19 01:25:53;;;;;;;5.50;3.95;;;20.60;33.00;;;;;;5036650;28;20421;-79
2022/05/19 01:28:19;;;;;;;7.68;4.55;;;20.60;33.20;;;;;;5040680;28;20396;-79
2022/05/19 01:30:45;;;;;;;5.10;4.33;;;20.70;32.90;;;;;;5041922;28;20506;-79
2022/05/19 01:33:10;;;;;;;5.53;4.20;;;20.70;32.60;;;;;;5042123;28;20414;-80
2022/05/19 01:35:36;;;;;;;7.10;3.93;;;20.70;32.20;;;;;;5037440;28;20415;-80
2022/05/19 01:38:06;;;;;;;5.53;4.47;;;20.80;32.00;;;;;;5042261;28;20901;-79
2022/05/19 01:40:48;;;;;;;5.30;4.18;;;20.80;31.70;;;;;;5043104;28;20406;-80
2022/05/19 01:43:22;;;;;;;4.97;4.20;;;20.80;31.40;;;;;;5043125;28;20395;-78
2022/05/19 01:46:05;;;;;;;4.85;4.00;;;20.80;31.60;;;;;;5041271;28;20411;-79
2022/05/19 01:48:33;;;;;;;7.43;4.35;;;21.00;30.50;;;;;;5041845;28;20407;-80
2022/05/19 01:51:30;;;;;;;9.05;4.00;;;21.10;29.80;;;;;;5037259;28;20417;-80
2022/05/19 01:53:55;;;;;;;6.15;4.10;;;21.10;29.20;;;;;;5031576;28;20403;-77
2022/05/19 01:57:07;;;;;;;9.07;4.35;;;21.20;28.80;;;;;;5044632;28;20411;-79
2022/05/19 01:59:54;;;;;;;6.20;4.10;;;21.10;29.20;;;;;;5033629;28;20400;-78
2022/05/19 02:02:31;;;;;;;10.90;4.13;;;21.00;29.50;;;;;;5049857;28;20902;-80
2022/05/19 02:05:25;;;;;;;4.13;3.72;;;21.00;29.60;;;;;;5036746;28;20704;-79
2022/05/19 02:07:54;;;;;;;5.20;3.85;;;20.90;30.30;;;;;;5058345;23;20452;-75
2022/05/19 02:10:26;;;;;;;11.15;4.32;;;20.90;30.10;;;;;;5049741;28;20757;-75
2022/05/19 02:12:52;;;;;;;6.95;3.92;;;20.80;30.30;;;;;;5029705;28;20747;-75
2022/05/19 02:15:22;;;;;;;5.50;3.85;;;20.70;30.90;;;;;;5034973;28;20411;-75
2022/05/19 02:17:50;;;;;;;5.72;3.90;;;20.70;30.70;;;;;;5035175;28;20881;-75
2022/05/19 02:20:20;;;;;;;6.75;4.40;;;20.70;30.60;;;;;;5033263;28;20391;-75
2022/05/19 02:22:45;;;;;;;6.60;3.92;;;20.70;31.00;;;;;;5044083;28;20415;-75
2022/05/19 02:25:14;;;;;;;5.20;4.17;;;20.60;31.70;;;;;;5044194;28;20777;-74
2022/05/19 02:27:51;;;;;;;8.98;4.60;;;20.50;31.80;;;;;;5037640;28;20477;-73
2022/05/19 02:30:23;;;;;;;5.80;4.10;;;20.40;32.10;;;;;;5032339;28;20421;-74
2022/05/19 02:32:49;;;;;;;9.40;4.00;;;20.30;32.50;;;;;;5032096;28;20737;-75
2022/05/19 02:35:15;;;;;;;11.15;4.60;;;20.30;32.60;;;;;;5040613;28;20413;-74
2022/05/19 02:37:42;;;;;;;4.50;3.95;;;20.20;33.10;;;;;;5037675;28;20498;-75
2022/05/19 02:40:10;;;;;;;6.85;4.30;;;20.10;33.50;;;;;;5037690;28;20948;-74
2022/05/19 02:42:37;;;;;;;5.20;4.05;;;20.10;33.80;;;;;;5043093;28;20759;-74
2022/05/19 02:45:02;;;;;;;6.18;4.60;;;20.10;33.60;;;;;;5040794;28;20419;-74
2022/05/19 02:47:28;;;;;;;7.28;4.20;;;20.00;33.90;;;;;;5038860;28;20486;-73
2022/05/19 02:49:54;;;;;;;5.57;4.00;;;20.00;34.30;;;;;;5031670;28;20432;-74
2022/05/19 02:52:19;;;;;;;7.30;4.00;;;19.90;34.60;;;;;;5031171;28;20449;-74
2022/05/19 02:54:45;;;;;;;8.48;4.40;;;19.90;34.90;;;;;;5038197;28;20509;-74
2022/05/19 02:57:11;;;;;;;5.40;3.70;;;19.90;34.90;;;;;;5044564;28;20894;-72
2022/05/19 02:59:36;;;;;;;5.20;4.60;;;19.90;34.90;;;;;;5031308;28;20415;-74
2022/05/19 03:02:02;;;;;;;6.40;4.40;;;19.80;35.30;;;;;;5036360;28;20454;-75
2022/05/19 03:04:28;;;;;;;7.73;4.70;;;19.80;35.40;;;;;;5036203;28;20499;-74
2022/05/19 03:06:54;;;;;;;5.90;4.10;;;19.80;35.70;;;;;;5042399;28;20408;-74
2022/05/19 03:09:21;;;;;;;8.05;4.07;;;19.60;36.70;;;;;;5039715;28;20406;-74
2022/05/19 03:11:46;;;;;;;6.43;4.45;;;19.60;37.20;;;;;;5030995;28;20461;-74
2022/05/19 03:14:12;;;;;;;7.25;4.50;;;19.60;37.10;;;;;;5033324;28;20777;-75
2022/05/19 03:16:39;;;;;;;5.47;4.17;;;19.50;37.20;;;;;;5043594;28;20445;-75
2022/05/19 03:19:05;;;;;;;7.73;4.77;;;19.50;37.80;;;;;;5041851;28;20882;-72
2022/05/19 03:21:31;;;;;;;6.75;4.60;;;19.50;37.50;;;;;;5037373;28;20410;-72
2022/05/19 03:23:56;;;;;;;7.00;4.60;;;19.50;37.60;;;;;;5046818;28;20405;-73
2022/05/19 03:26:22;;;;;;;6.10;5.30;;;19.50;37.70;;;;;;5033285;28;20411;-74
2022/05/19 03:28:48;;;;;;;10.05;4.68;;;19.50;37.70;;;;;;5030651;28;20399;-74
2022/05/19 03:31:13;;;;;;;9.43;5.30;;;19.40;38.10;;;;;;5031038;28;20398;-73
2022/05/19 03:33:39;;;;;;;6.67;4.60;;;19.40;38.30;;;;;;5030962;28;20403;-75
2022/05/19 03:36:05;;;;;;;6.80;4.63;;;19.40;38.10;;;;;;5036347;28;20403;-75
2022/05/19 03:38:31;;;;;;;9.05;4.45;;;19.50;37.50;;;;;;5043737;28;20393;-74
2022/05/19 03:40:56;;;;;;;5.70;4.90;;;19.50;36.90;;;;;;5037616;28;20409;-74
2022/05/19 03:43:22;;;;;;;9.90;4.70;;;19.50;37.00;;;;;;5021699;28;21012;-74
2022/05/19 03:45:48;;;;;;;6.73;4.27;;;19.50;37.10;;;;;;5030514;28;20437;-72
2022/05/19 03:48:14;;;;;;;6.63;4.40;;;19.50;37.00;;;;;;5030193;28;20859;-72
2022/05/19 03:50:44;;;;;;;6.70;4.50;;;19.50;36.60;;;;;;5027712;28;20411;-71
2022/05/19 03:53:10;;;;;;;9.20;4.60;;;19.50;36.40;;;;;;5032741;28;20440;-72
2022/05/19 03:55:36;;;;;;;5.33;4.50;;;19.60;36.20;;;;;;5029181;28;20425;-74
2022/05/19 03:58:01;;;;;;;6.00;4.50;;;19.60;36.00;;;;;;5027775;28;20405;-75
2022/05/19 04:00:27;;;;;;;4.60;4.20;;;19.70;35.70;;;;;;5026876;28;20430;-73
2022/05/19 04:02:52;;;;;;;6.35;4.43;;;19.70;35.70;;;;;;5027629;28;20497;-73
2022/05/19 04:05:18;;;;;;;7.87;4.73;;;19.70;35.50;;;;;;5030425;28;20964;-73
2022/05/19 04:07:44;;;;;;;11.13;4.70;;;20.00;34.40;;;;;;5029411;28;20399;-75
2022/05/19 04:10:11;;;;;;;8.30;4.77;;;20.00;34.20;;;;;;5027529;28;20408;-74
2022/05/19 04:12:37;;;;;;;8.35;5.22;;;19.90;34.10;;;;;;5030019;28;20410;-73
2022/05/19 04:15:05;;;;;;;7.43;4.32;;;20.00;33.80;;;;;;5030294;28;20426;-73
2022/05/19 04:17:33;;;;;;;9.27;4.40;;;20.00;33.40;;;;;;5030117;28;20390;-72
2022/05/19 04:20:00;;;;;;;8.25;4.60;;;20.10;32.60;;;;;;5022870;28;21004;-74
2022/05/19 04:22:25;;;;;;;6.40;4.20;;;20.20;32.50;;;;;;5031853;28;20409;-74
2022/05/19 04:24:51;;;;;;;10.43;4.67;;;20.30;32.40;;;;;;5030396;28;20494;-72
2022/05/19 04:27:16;;;;;;;6.90;4.50;;;20.30;32.40;;;;;;5030016;28;20399;-74
2022/05/19 04:29:42;;;;;;;8.18;4.45;;;20.40;31.90;;;;;;5029921;28;20465;-74
2022/05/19 04:32:08;;;;;;;8.37;4.27;;;20.40;31.70;;;;;;5027274;28;20399;-74
2022/05/19 04:34:33;;;;;;;7.07;4.70;;;20.50;31.80;;;;;;5029333;28;20532;-73
2022/05/19 04:36:59;;;;;;;6.05;4.40;;;20.50;31.90;;;;;;5029767;28;20500;-75
2022/05/19 04:39:24;;;;;;;5.65;4.30;;;20.60;31.00;;;;;;5029667;28;20406;-74
2022/05/19 04:41:50;;;;;;;6.10;4.30;;;20.70;30.90;;;;;;5029538;28;20411;-74
2022/05/19 04:44:18;;;;;;;11.25;4.63;;;20.80;30.70;;;;;;5029135;28;20411;-74
2022/05/19 04:46:44;;;;;;;11.52;4.43;;;20.80;30.70;;;;;;5033618;28;20445;-75
2022/05/19 04:49:09;;;;;;;7.53;4.20;;;20.90;30.40;;;;;;5029625;28;20398;-72
2022/05/19 04:51:35;;;;;;;11.70;4.33;;;21.00;30.20;;;;;;5029231;28;20721;-72
2022/05/19 04:54:01;;;;;;;7.00;4.50;;;21.20;29.80;;;;;;5028329;28;20825;-74
2022/05/19 04:56:26;;;;;;;11.38;5.00;;;21.30;29.20;;;;;;5032413;28;20403;-75
2022/05/19 04:58:52;;;;;;;7.10;4.10;;;21.40;28.90;;;;;;5030679;28;20407;-72
2022/05/19 05:01:17;;;;;;;6.80;4.57;;;21.40;28.60;;;;;;5032052;28;20407;-75
2022/05/19 05:03:43;;;;;;;10.65;4.30;;;21.50;28.40;;;;;;5034066;28;20901;-74
2022/05/19 05:06:08;;;;;;;4.60;4.20;;;21.50;28.60;;;;;;5036209;28;20493;-74
2022/05/19 05:08:34;;;;;;;7.82;4.57;;;21.60;28.10;;;;;;5034053;28;20465;-74
2022/05/19 05:10:59;;;;;;;7.00;4.60;;;21.60;27.60;;;;;;5034071;28;20784;-75
2022/05/19 05:13:25;;;;;;;8.47;4.20;;;21.70;27.70;;;;;;5034720;28;20429;-74
2022/05/19 05:15:51;;;;;;;6.13;4.20;;;21.80;27.50;;;;;;5034194;28;20403;-74
2022/05/19 05:18:16;;;;;;;7.17;4.50;;;21.70;27.10;;;;;;5033075;28;20802;-73
2022/05/19 05:20:43;;;;;;;9.02;4.35;;;21.80;26.80;;;;;;5026615;28;20412;-74
2022/05/19 05:23:09;;;;;;;5.78;4.65;;;21.80;26.20;;;;;;5034454;28;20513;-74
2022/05/19 05:25:35;;;;;;;5.70;4.10;;;21.80;26.40;;;;;;5032304;28;20501;-74
2022/05/19 05:28:01;;;;;;;10.57;4.50;;;21.80;26.20;;;;;;5032265;28;20482;-77
2022/05/19 05:30:27;;;;;;;9.05;5.18;;;21.70;26.60;;;;;;5033030;28;20419;-73
2022/05/19 05:32:52;;;;;;;6.90;4.23;;;21.60;26.80;;;;;;5033032;28;20919;-75
2022/05/19 05:35:18;;;;;;;5.47;4.40;;;21.60;26.40;;;;;;5035194;28;20887;-75
2022/05/19 05:37:44;;;;;;;6.32;4.40;;;21.70;26.60;;;;;;5032847;28;20438;-75
2022/05/19 05:40:13;;;;;;;4.68;4.15;;;21.60;26.60;;;;;;5034330;28;20411;-75
2022/05/19 05:42:39;;;;;;;8.90;4.78;;;21.60;26.70;;;;;;5032617;28;20406;-74
2022/05/19 05:45:07;;;;;;;7.93;4.65;;;21.60;26.90;;;;;;5033774;28;20468;-74
2022/05/19 05:47:32;;;;;;;9.45;5.10;;;21.70;26.90;;;;;;5033942;28;20458;-75
2022/05/19 05:49:58;;;;;;;7.50;4.83;;;21.90;25.60;;;;;;5036688;28;20429;-75
2022/05/19 05:52:25;;;;;;;6.63;4.70;;;22.00;25.10;;;;;;5034717;28;20395;-75
2022/05/19 05:54:50;;;;;;;13.25;4.80;;;22.00;25.70;;;;;;5033572;28;20411;-75
2022/05/19 05:57:16;;;;;;;8.20;5.00;;;22.00;25.80;;;;;;5039469;28;20407;-75
2022/05/19 05:59:42;;;;;;;8.98;5.00;;;22.00;25.80;;;;;;5030797;28;21469;-74
2022/05/19 06:02:07;;;;;;;9.68;5.78;;;22.00;26.50;;;;;;5032249;28;20961;-74
2022/05/19 06:04:33;;;;;;;11.75;5.97;;;21.90;27.90;;;;;;5034747;28;20441;-77
2022/05/19 06:06:59;;;;;;;10.30;5.57;;;21.80;28.50;;;;;;5031550;28;20418;-74
2022/05/19 06:09:25;;;;;;;8.90;5.33;;;21.70;29.10;;;;;;5032212;28;20525;-73
2022/05/19 06:11:51;;;;;;;6.60;5.05;;;21.70;29.90;;;;;;5030813;28;20415;-73
2022/05/19 06:14:17;;;;;;;7.18;5.20;;;21.80;29.80;;;;;;5035380;28;20884;-74
2022/05/19 06:16:42;;;;;;;10.10;5.80;;;22.10;29.20;;;;;;5030784;28;20461;-74
2022/05/19 06:19:08;;;;;;;11.55;5.85;;;22.20;28.40;;;;;;5033595;28;20868;-73
2022/05/19 06:21:36;;;;;;;11.47;5.40;;;22.30;27.40;;;;;;5031594;28;20496;-74
2022/05/19 06:24:04;;;;;;;14.02;5.40;;;22.50;27.50;;;;;;5030964;28;20556;-72
2022/05/19 06:26:32;;;;;;;16.38;5.80;;;22.60;26.50;;;;;;5031276;28;20791;-72
2022/05/19 06:28:58;;;;;;;8.93;4.90;;;22.70;25.90;;;;;;5030718;28;20399;-73
2022/05/19 06:31:24;;;;;;;12.48;5.43;;;22.90;26.10;;;;;;5031810;28;20413;-74
2022/05/19 06:33:50;;;;;;;7.03;5.00;;;23.10;24.70;;;;;;5031840;28;20453;-74
2022/05/19 06:36:15;;;;;;;9.85;5.30;;;23.30;24.10;;;;;;5034862;28;20493;-75
2022/05/19 06:38:41;;;;;;;7.97;5.00;;;23.60;24.00;;;;;;5033085;28;20819;-74
2022/05/19 06:43:51;;;;;;;10.07;5.40;;;24.00;21.90;;;;;;5027941;28;20446;-73
2022/05/19 06:46:17;;;;;;;9.30;4.70;;;24.20;21.50;;;;;;5032474;28;20445;-74
2022/05/19 06:48:43;;;;;;;8.63;4.60;;;24.40;21.90;;;;;;5023416;28;20451;-78
2022/05/19 06:51:09;;;;;;;9.52;5.18;;;24.30;20.50;;;;;;5027802;28;20980;-71
2022/05/19 06:53:36;;;;;;;10.02;4.10;;;24.40;20.20;;;;;;5026346;28;20425;-73
2022/05/19 06:56:01;;;;;;;12.37;4.70;;;24.30;20.40;;;;;;5022425;28;20413;-74
2022/05/19 06:58:27;;;;;;;11.93;5.03;;;24.30;20.50;;;;;;5025613;28;20406;-71
2022/05/19 07:00:53;;;;;;;8.33;4.40;;;24.20;20.80;;;;;;5024187;28;20414;-74
2022/05/19 07:03:18;;;;;;;12.57;4.60;;;24.10;20.60;;;;;;5027341;28;20510;-74
2022/05/19 07:05:44;;;;;;;8.17;4.70;;;24.10;20.40;;;;;;5025013;28;20899;-74
2022/05/19 07:08:10;;;;;;;9.30;4.40;;;24.10;20.60;;;;;;5025616;28;20402;-73
2022/05/19 07:10:36;;;;;;;7.82;4.65;;;24.20;20.90;;;;;;5024476;28;20465;-71
2022/05/19 07:13:01;;;;;;;5.90;4.50;;;24.30;21.30;;;;;;5025639;28;20411;-73
2022/05/19 07:15:28;;;;;;;7.33;4.00;;;24.40;20.30;;;;;;5024536;28;20832;-72
2022/05/19 07:17:54;;;;;;;6.68;4.50;;;24.50;20.00;;;;;;5023986;28;20419;-74
2022/05/19 07:23:06;;;;;;;8.30;4.80;;;24.40;19.70;;;;;;5026448;28;20422;-74
2022/05/19 07:25:32;;;;;;;8.13;4.78;;;24.50;19.60;;;;;;5025763;28;20418;-76
2022/05/19 07:27:57;;;;;;;8.30;4.50;;;24.60;19.80;;;;;;5022626;28;20415;-73
2022/05/19 07:30:23;;;;;;;8.40;4.05;;;24.70;19.90;;;;;;5028301;28;20457;-77
2022/05/19 07:32:49;;;;;;;6.47;4.30;;;24.80;19.40;;;;;;5030608;28;20405;-76
2022/05/19 07:35:17;;;;;;;7.23;4.23;;;24.70;19.10;;;;;;5032253;28;20498;-75
2022/05/19 07:37:42;;;;;;;8.52;4.70;;;24.60;19.80;;;;;;5024078;28;20496;-76
2022/05/19 07:40:09;;;;;;;8.60;4.53;;;24.50;19.60;;;;;;5028976;28;20803;-74
2022/05/19 07:42:34;;;;;;;8.00;4.70;;;24.50;19.80;;;;;;5023189;28;20410;-72
2022/05/19 07:45:01;;;;;;;8.23;4.60;;;24.60;19.10;;;;;;5028466;28;20405;-71
2022/05/19 07:47:29;;;;;;;6.95;4.70;;;24.70;19.20;;;;;;5034263;28;20433;-71
2022/05/19 07:49:56;;;;;;;9.10;4.60;;;24.70;19.10;;;;;;5029716;28;20442;-72
2022/05/19 07:52:22;;;;;;;9.90;4.13;;;24.90;19.40;;;;;;5028372;28;20414;-74
2022/05/19 07:54:48;;;;;;;9.27;4.30;;;25.00;18.10;;;;;;5027910;28;20745;-74
2022/05/19 07:57:13;;;;;;;8.30;4.17;;;25.10;18.10;;;;;;5028613;28;20410;-72
2022/05/19 07:59:39;;;;;;;11.40;5.00;;;25.10;18.00;;;;;;5026518;28;20414;-72
2022/05/19 08:02:05;;;;;;;5.40;4.27;;;25.20;18.20;;;;;;5019627;28;20409;-72
2022/05/19 08:04:31;;;;;;;8.88;4.90;;;25.20;17.80;;;;;;5025399;28;20927;-72
2022/05/19 08:06:56;;;;;;;6.88;4.32;;;25.20;18.40;;;;;;5030562;28;20415;-71
2022/05/19 08:12:07;;;;;;;13.98;4.45;;;25.30;18.00;;;;;;5025473;28;20431;-73
2022/05/19 08:17:19;;;;;;;7.93;4.22;;;25.50;18.80;;;;;;5025822;28;20410;-79
2022/05/19 08:19:46;;;;;;;11.02;5.15;;;25.60;18.00;;;;;;5028420;28;20445;-78
2022/05/19 08:22:12;;;;;;;8.55;4.10;;;25.60;17.50;;;;;;5024458;28;20414;-78
2022/05/19 08:24:38;;;;;;;7.25;4.25;;;25.50;17.20;;;;;;5028555;28;20882;-79
2022/05/19 08:27:04;;;;;;;6.88;4.20;;;25.60;17.50;;;;;;5017897;28;20568;-76
2022/05/19 08:29:30;;;;;;;8.18;4.15;;;25.60;16.50;;;;;;5014053;28;20482;-79
2022/05/19 08:31:55;;;;;;;6.20;4.00;;;25.60;16.70;;;;;;5018096;28;20444;-78
2022/05/19 08:34:22;;;;;;;7.90;3.83;;;25.70;16.70;;;;;;5016875;28;20392;-78
2022/05/19 08:36:48;;;;;;;8.55;4.10;;;26.00;16.40;;;;;;5010497;28;20408;-77
2022/05/19 08:39:14;;;;;;;7.20;4.30;;;26.20;16.00;;;;;;5018438;28;20537;-79
2022/05/19 08:41:48;;;;;;;6.88;4.10;;;26.40;15.80;;;;;;5018860;28;20803;-79
2022/05/19 08:44:22;;;;;;;9.77;4.35;;;26.60;15.50;;;;;;5025351;28;20889;-79
2022/05/19 08:46:50;;;;;;;10.60;4.88;;;26.70;15.30;;;;;;5025626;28;20420;-80
2022/05/19 08:49:22;;;;;;;4.87;4.10;;;26.80;15.30;;;;;;5017590;28;20474;-75
2022/05/19 08:52:15;;;;;;;7.05;4.82;;;26.90;14.80;;;;;;5016467;28;20400;-74
2022/05/19 08:54:44;;;;;;;7.10;4.38;;;26.90;15.00;;;;;;5012398;28;20965;-75
2022/05/19 08:57:21;;;;;;;12.80;4.30;;;27.00;15.40;;;;;;5011472;28;20418;-76
2022/05/19 08:59:59;;;;;;;7.07;4.37;;;27.00;14.60;;;;;;5015722;28;20420;-75
2022/05/19 09:02:37;;;;;;;5.25;4.22;;;26.90;14.10;;;;;;5015446;28;20421;-76
2022/05/19 09:05:35;;;;;;;6.53;4.60;;;27.10;14.30;;;;;;5019372;28;20407;-75
2022/05/19 09:08:23;;;;;;;6.00;4.27;;;27.20;14.50;;;;;;5017593;28;20428;-76
2022/05/19 09:10:59;;;;;;;7.30;4.20;;;27.10;13.90;;;;;;5021701;28;20412;-76
2022/05/19 09:13:41;;;;;;;7.57;4.07;;;27.30;15.10;;;;;;5009878;28;20444;-75
2022/05/19 09:16:12;;;;;;;7.40;4.20;;;27.30;14.60;;;;;;5016304;28;20399;-76
2022/05/19 09:18:43;;;;;;;6.63;4.15;;;27.40;14.10;;;;;;5014619;28;20417;-76
2022/05/19 09:21:09;;;;;;;6.88;3.90;;;27.20;14.20;;;;;;5021404;28;20549;-75
2022/05/19 09:23:40;;;;;;;8.55;4.45;;;27.20;14.50;;;;;;5011128;28;20412;-75
2022/05/19 09:26:27;;;;;;;7.00;4.50;;;27.20;15.00;;;;;;5016260;28;20425;-76
2022/05/19 09:29:03;;;;;;;11.30;4.63;;;27.30;14.50;;;;;;5026940;28;20898;-75
2022/05/19 09:31:47;;;;;;;8.80;4.20;;;27.40;13.80;;;;;;5009441;28;20405;-74
2022/05/19 09:34:13;;;;;;;5.13;4.20;;;27.40;13.70;;;;;;5019029;28;20420;-75
2022/05/19 09:36:53;;;;;;;7.78;4.40;;;27.40;14.60;;;;;;5027660;28;20403;-76
2022/05/19 09:39:20;;;;;;;8.45;4.80;;;27.40;14.30;;;;;;5016579;28;20416;-75
2022/05/19 09:41:51;;;;;;;7.55;4.40;;;27.50;14.90;;;;;;5018509;28;20499;-76
2022/05/19 09:44:26;;;;;;;7.45;4.18;;;27.50;13.40;;;;;;5024752;28;20400;-76
2022/05/19 09:46:52;;;;;;;8.13;5.15;;;27.50;13.70;;;;;;5023015;28;20440;-76
2022/05/19 09:49:30;;;;;;;10.20;4.93;;;27.50;14.00;;;;;;5030880;28;20482;-76
2022/05/19 09:52:05;;;;;;;7.72;4.03;;;27.50;13.90;;;;;;5025421;28;20430;-76
2022/05/19 09:54:33;;;;;;;7.20;4.40;;;27.70;13.50;;;;;;5031307;28;20395;-77
2022/05/19 09:57:17;;;;;;;6.53;4.90;;;27.70;13.80;;;;;;5035980;28;20425;-77
2022/05/19 09:59:48;;;;;;;11.60;5.00;;;27.80;13.40;;;;;;5015167;28;20470;-77
2022/05/19 10:02:27;;;;;;;6.18;4.10;;;27.80;13.50;;;;;;5021501;28;20405;-76
2022/05/19 10:04:57;;;;;;;11.50;4.22;;;27.80;13.40;;;;;;5024295;28;20412;-76
2022/05/19 10:07:44;;;;;;;6.75;4.18;;;27.90;13.30;;;;;;5012127;28;20403;-75
2022/05/19 10:10:46;;;;;;;8.60;4.38;;;28.00;12.80;;;;;;5016293;28;20429;-76
2022/05/19 10:13:14;;;;;;;9.77;4.70;;;27.90;12.70;;;;;;5018647;28;20430;-77
2022/05/19 10:15:46;;;;;;;8.68;4.43;;;28.00;13.10;;;;;;5020648;28;20473;-77
2022/05/19 10:18:38;;;;;;;7.50;4.25;;;28.10;13.30;;;;;;5020481;28;20395;-74
2022/05/19 10:21:11;;;;;;;8.35;4.50;;;28.30;13.30;;;;;;5012370;28;20423;-75
2022/05/19 10:24:05;;;;;;;8.40;4.95;;;28.40;12.90;;;;;;5018800;28;20440;-75
2022/05/19 10:26:43;;;;;;;11.95;4.60;;;28.50;11.80;;;;;;4999176;28;20553;-75
2022/05/19 10:32:35;;;;;;;6.72;4.20;;;28.40;12.40;;;;;;5023157;28;20477;-75
2022/05/19 10:35:19;;;;;;;9.50;4.60;;;28.50;11.90;;;;;;5017294;28;20404;-74
2022/05/19 10:38:32;;;;;;;9.25;4.50;;;28.50;12.30;;;;;;5019957;28;20427;-75
2022/05/19 10:41:12;;;;;;;7.38;4.10;;;28.50;11.90;;;;;;5025209;28;20401;-76
2022/05/19 10:44:11;;;;;;;6.97;4.60;;;28.60;11.80;;;;;;5018559;28;20405;-75
2022/05/19 10:46:58;;;;;;;6.50;4.43;;;28.70;11.90;;;;;;5024047;28;20490;-75
2022/05/19 10:49:46;;;;;;;8.45;4.60;;;28.90;11.40;;;;;;5031392;28;20457;-75
2022/05/19 10:52:11;;;;;;;5.53;4.50;;;29.00;11.70;;;;;;5015785;28;20412;-77
2022/05/19 10:55:17;;;;;;;11.05;4.47;;;29.00;11.70;;;;;;5027014;28;20394;-77
2022/05/19 10:57:53;;;;;;;4.72;4.30;;;28.80;11.30;;;;;;5024758;28;20905;-77
2022/05/19 11:00:45;;;;;;;5.43;4.20;;;28.70;11.90;;;;;;5018464;28;20802;-77
2022/05/19 11:03:17;;;;;;;6.63;4.28;;;28.70;11.70;;;;;;5012951;28;20413;-76
2022/05/19 11:06:01;;;;;;;10.00;4.50;;;28.80;13.40;;;;;;5013563;28;20471;-76
2022/05/19 11:08:52;;;;;;;12.45;5.72;;;28.70;15.30;;;;;;5011809;28;20444;-77
2022/05/19 11:11:36;;;;;;;12.90;4.90;;;28.70;17.70;;;;;;5020811;28;20400;-78
2022/05/19 11:14:48;;;;;;;6.97;5.10;;;28.50;17.70;;;;;;5021996;28;20417;-78
2022/05/19 11:17:38;;;;;;;8.52;4.75;;;28.30;20.00;;;;;;5005468;28;20408;-77
2022/05/19 11:20:14;;;;;;;12.65;5.50;;;28.30;19.90;;;;;;5020805;28;20436;-79
2022/05/19 11:22:41;;;;;;;7.18;5.40;;;28.50;22.20;;;;;;5020612;28;20404;-77
2022/05/19 11:28:10;;;;;;;8.70;5.35;;;28.90;22.00;;;;;;5025864;28;20439;-77
2022/05/19 11:30:41;;;;;;;5.90;4.80;;;29.10;22.20;;;;;;5016723;28;20420;-77
2022/05/19 11:33:14;;;;;;;5.80;4.70;;;29.40;19.40;;;;;;5022347;28;20501;-78
2022/05/19 11:35:46;;;;;;;11.07;5.10;;;29.60;17.90;;;;;;5035655;28;20412;-77
2022/05/19 11:38:31;;;;;;;7.32;4.70;;;29.80;16.00;;;;;;5040948;28;20490;-78
2022/05/19 11:41:05;;;;;;;8.27;4.35;;;29.90;13.00;;;;;;5029977;28;20427;-79
2022/05/19 11:43:40;;;;;;;6.75;4.05;;;29.90;12.40;;;;;;5026816;28;20764;-77
2022/05/19 11:46:08;;;;;;;7.65;4.40;;;29.90;11.10;;;;;;5036291;28;20407;-79
2022/05/19 11:57:42;;;;;;;5.88;4.13;;;30.50;9.50;;;;;;5027557;28;20406;-80
2022/05/19 12:00:11;;;;;;;6.75;4.20;;;30.60;8.10;;;;;;5033566;28;20431;-77
2022/05/19 12:02:48;;;;;;;16.30;4.32;;;30.70;9.70;;;;;;5038084;28;20428;-77
2022/05/19 12:05:23;;;;;;;6.43;4.50;;;30.70;8.00;;;;;;5034487;28;20419;-78
2022/05/19 12:07:53;;;;;;;8.40;4.80;;;30.70;8.20;;;;;;5034867;28;20483;-79
2022/05/19 12:10:24;;;;;;;6.10;4.60;;;31.00;8.40;;;;;;5034016;28;20396;-78
2022/05/19 12:13:00;;;;;;;4.57;3.90;;;31.60;7.90;;;;;;5034692;28;20389;-77
2022/05/19 12:15:54;;;;;;;6.07;4.20;;;32.10;6.10;;;;;;5048160;28;20530;-77
2022/05/19 12:18:36;;;;;;;6.20;4.18;;;32.50;5.80;;;;;;5033883;28;20426;-75
2022/05/19 12:21:02;;;;;;;7.28;3.60;;;32.70;5.20;;;;;;5033282;28;20393;-79
2022/05/19 12:23:33;;;;;;;6.25;3.90;;;32.80;5.00;;;;;;5034616;28;20451;-77
2022/05/19 12:26:10;;;;;;;7.60;4.30;;;32.80;4.50;;;;;;5029770;28;20416;-76
2022/05/19 12:29:11;;;;;;;6.65;4.13;;;33.00;5.30;;;;;;5032425;28;20475;-79
2022/05/19 12:31:57;;;;;;;6.30;3.90;;;33.30;4.00;;;;;;5031320;28;20416;-77
2022/05/19 12:34:28;;;;;;;4.72;3.72;;;33.40;4.00;;;;;;5035017;28;20397;-77
2022/05/19 12:37:15;;;;;;;3.92;3.40;;;33.00;4.50;;;;;;5033506;28;20414;-78
2022/05/19 12:39:46;;;;;;;5.60;4.00;;;32.90;4.00;;;;;;5029769;28;20411;-78
2022/05/19 12:42:32;;;;;;;5.57;3.95;;;32.50;5.30;;;;;;5034333;28;20411;-76
2022/05/19 12:44:59;;;;;;;6.45;4.50;;;31.80;5.30;;;;;;5036436;28;20445;-78
2022/05/19 12:47:32;;;;;;;6.17;4.30;;;31.40;6.60;;;;;;5033165;28;20437;-80
2022/05/19 12:50:03;;;;;;;6.85;4.38;;;30.90;6.90;;;;;;5030903;28;20457;-77
2022/05/19 12:52:54;;;;;;;5.78;4.03;;;30.40;7.80;;;;;;5031651;28;20499;-82
2022/05/19 12:55:22;;;;;;;5.10;4.20;;;30.10;8.60;;;;;;5027693;28;20420;-78
2022/05/19 12:57:49;;;;;;;6.80;4.40;;;29.80;9.20;;;;;;5028032;28;20417;-78
2022/05/19 13:00:19;;;;;;;9.32;4.60;;;29.60;10.00;;;;;;5031442;28;20413;-81
2022/05/19 13:03:03;;;;;;;7.82;4.70;;;29.30;10.40;;;;;;5028877;28;20463;-82
2022/05/19 13:05:50;;;;;;;7.78;4.57;;;29.00;11.30;;;;;;5017376;28;20431;-82
2022/05/19 13:08:27;;;;;;;8.65;4.82;;;28.90;11.30;;;;;;5016923;28;20423;-83
2022/05/19 13:10:53;;;;;;;59.17;7.15;;;28.90;11.70;;;;;;5020413;28;20455;-83
2022/05/19 13:13:25;;;;;;;70.63;6.00;;;25.70;14.80;;;;;;5025300;28;20439;-78
2022/05/19 13:15:57;;;;;;;37.83;3.53;;;23.70;21.00;;;;;;5023596;28;20419;-82
2022/05/19 13:18:36;;;;;;;26.17;3.40;;;22.40;27.10;;;;;;5024503;28;20441;-76
2022/05/19 13:21:07;;;;;;;17.65;2.03;;;21.40;36.00;;;;;;5023559;28;20404;-78
2022/05/19 13:23:33;;;;;;;18.10;3.10;;;20.60;51.40;;;;;;5021208;28;20406;-79
2022/05/19 13:26:16;;;;;;;5.40;1.55;;;18.80;99.90;;;;;;5013935;28;20507;-76
2022/05/19 13:32:00;;;;;;;0.80;0.60;;;22.40;1.40;;;;;;5023063;28;20410;-75
2022/05/19 13:34:46;;;;;;;1.60;0.70;;;21.80;1.40;;;;;;5016556;28;20411;-76